TRLK1: Toronto Lake

Data processed at Wed May 22 2019 23:50


All information presented herein is the property of the government of the United States of America and may be revised or deleted at any time without prior notice.
Dissemination of this information without the expressed written consent of the Public Affairs Office, Tulsa District U.S. Army Corps of Engineers is strictly prohibited.
These data are gathered electronically and, as presented, have not undergone any form of quality control. These data are not guaranteed to be valid or correct.
Go to home page.
Go to station list.
Go to home page.

Upstream stations:

Downstream station:
Previous Day
Next Day
Current Day
    
SHEF ID:       TRLK1     Toronto Lake
STATION TYPE:  RESERVOIR
Flood Pool:  Bottom =   901.50, Top =   931.00

               PRECIP ELEVATION   STORAGE    INFLOW   RELEASE  AIR-TEMP  WIND-DIRWIND-SPEED REL-HUMID SOLAR-RAD   VOLTAGE  BAT-LOAD
                   in        ft     ac-ft       cfs       cfs         F       deg       mph         %      W/m2      volt      volt
              Ccp-Rev   Ccp-Rev   Ccp-Rev  Rev-Regi  Rev-Regi   Ccp-Rev   Ccp-Rev   Ccp-Rev   Ccp-Rev   Ccp-Rev   Ccp-Rev   Ccp-Rev
(US/Central)
05/22 00:00      0.00    931.84    193796     32704     15549     62.92    191.40      8.60     64.83      0.00     13.58     13.29
05/22 01:00      0.00    931.94    194786     30149     15581     60.26    201.60      4.70     76.29      0.00     13.58     12.97
05/22 02:00      0.00    932.02    195585     27159     15605     57.56    180.50      4.50     80.28      0.00     13.58     12.97
05/22 03:00      0.00    932.08    196201     24629     19546     56.30    183.80      4.20     82.86      0.00     13.58     12.97
05/22 04:00      0.00    932.11    196509     23033     19555     54.93    179.80      2.60     88.46      0.00     13.58     12.97
05/22 05:00      0.00    932.13    196714     21893     19562     53.80    169.10      1.90     89.91      0.00     13.58     12.97
05/22 06:00      0.00    932.13    196714     20304     19562     53.10    182.60      2.60     95.74      0.00     13.58     12.97
05/22 07:00      0.00    932.13    196714     18814     19562     52.57    192.70      3.10     97.35     22.40     13.58     12.97
05/22 08:00      0.00    932.11    196509     17570     19562     53.85    208.10      3.10     90.13    174.50     13.58     12.97
05/22 09:00      0.00    932.08    196201     16082     19562     56.48    209.70      3.70     77.44    363.30     13.58     12.97
05/22 10:00      0.00    932.05    195893     15113     19562     59.11    180.00      4.30     66.50    549.40     13.58     12.97
05/22 11:00      0.00    931.99    195281     13917     19562     62.47    184.50      4.00     62.90    686.30     13.58     12.97
05/22 12:00      0.00    931.95    194885     12969     19562     65.57    180.40      6.30     62.49    630.60     13.58     12.97
05/22 13:00      0.00    931.88    194192     12254     19562     67.78    191.40      9.30     65.31    837.90     13.58     12.97
05/22 14:00      0.00    931.81    193499     11318     19562     68.27    194.30     11.40     71.15    398.70     13.58     12.97
05/22 15:00      0.00    931.75    192905     10817     19562     68.32    204.70      6.90     73.04    299.20     13.58     12.97
05/22 16:00      0.00    931.65    191915     10254     19562     68.54    218.80      4.10     75.33     97.50     13.58     12.89
05/22 17:00      0.00    931.62    191618      9449     19562     67.71    242.50      3.50     81.17     50.20     13.58     12.89
05/22 18:00      0.00    931.56    191024      8888     19562     67.75    356.60      1.40     85.34     66.30     13.58     12.89
05/22 19:00      0.00    931.49    190331      9764     19562     66.54      7.20      2.60     90.82     75.50     13.58     12.89
05/22 20:00      0.00    931.44    189836     10403     19562     65.82    354.30      3.10     93.36     17.30     13.58     12.97
05/22 21:00      0.00    931.41    189539     11110     19562     65.77     17.80      3.00     94.15      1.40     13.58     12.97
05/22 22:00      0.01    931.41    189539     12779     19562     66.72     51.90      3.50     88.66      0.00     13.58     12.89
05/22 23:00      0.00    931.38    189242     12534     19562     65.19     65.70      1.80     90.21      0.00     13.58     12.89